Terminal Aerodrome Forecast
Issued by NWS

Home | Current Version | Previous Version | Graphics & Text | Print | Product List | Glossary On
Versions: 1 2 3 4 5 6 7 8 9 10 11 12 13 14 15
000
FTUS43 KMPX 140521
TAFRWF
TAF
KRWF 140521Z 1406/1506 17010KT P6SM OVC050
     FM140715 18009KT P6SM SKC
     FM141200 22006KT P6SM SKC
     FM142000 29005KT P6SM SKC=

USA.gov is the U.S. government's official web portal to all federal, state and local government web resources and services.